sensor_id;sensor_type;location;lat;lon;timestamp;temperature;humidity
49222;DHT22;35047;37.588;-122.048;2023-08-01T00:01:31;39.20;35.40
49222;DHT22;35047;37.588;-122.048;2023-08-01T00:03:58;39.40;35.30
49222;DHT22;35047;37.588;-122.048;2023-08-01T00:06:24;39.40;35.40
49222;DHT22;35047;37.588;-122.048;2023-08-01T00:08:52;39.00;35.40
49222;DHT22;35047;37.588;-122.048;2023-08-01T00:11:18;39.10;35.20
49222;DHT22;35047;37.588;-122.048;2023-08-01T00:13:44;39.20;35.30
49222;DHT22;35047;37.588;-122.048;2023-08-01T00:16:11;39.60;35.40
49222;DHT22;35047;37.588;-122.048;2023-08-01T00:18:38;39.50;34.90
49222;DHT22;35047;37.588;-122.048;2023-08-01T00:21:04;39.40;35.30
49222;DHT22;35047;37.588;-122.048;2023-08-01T00:26:02;38.30;35.90
49222;DHT22;35047;37.588;-122.048;2023-08-01T00:28:29;37.30;37.00
49222;DHT22;35047;37.588;-122.048;2023-08-01T00:31:09;36.60;38.40
49222;DHT22;35047;37.588;-122.048;2023-08-01T00:33:35;36.30;39.20
49222;DHT22;35047;37.588;-122.048;2023-08-01T00:36:02;36.60;39.20
49222;DHT22;35047;37.588;-122.048;2023-08-01T00:38:29;37.10;38.10
49222;DHT22;35047;37.588;-122.048;2023-08-01T00:40:55;37.20;37.60
49222;DHT22;35047;37.588;-122.048;2023-08-01T00:43:22;37.40;37.70
49222;DHT22;35047;37.588;-122.048;2023-08-01T00:45:48;37.10;37.60
49222;DHT22;35047;37.588;-122.048;2023-08-01T00:48:15;37.10;38.20
49222;DHT22;35047;37.588;-122.048;2023-08-01T00:50:42;36.60;38.00
49222;DHT22;35047;37.588;-122.048;2023-08-01T00:53:08;36.30;38.70
49222;DHT22;35047;37.588;-122.048;2023-08-01T00:55:34;35.40;39.50
49222;DHT22;35047;37.588;-122.048;2023-08-01T00:58:01;34.80;40.90
49222;DHT22;35047;37.588;-122.048;2023-08-01T01:00:28;34.50;41.30
49222;DHT22;35047;37.588;-122.048;2023-08-01T01:02:55;34.40;41.10
49222;DHT22;35047;37.588;-122.048;2023-08-01T01:05:21;34.30;41.00
49222;DHT22;35047;37.588;-122.048;2023-08-01T01:07:49;34.40;41.30
49222;DHT22;35047;37.588;-122.048;2023-08-01T01:10:16;34.20;41.30
49222;DHT22;35047;37.588;-122.048;2023-08-01T01:12:42;33.80;42.10
49222;DHT22;35047;37.588;-122.048;2023-08-01T01:15:09;33.40;42.90
49222;DHT22;35047;37.588;-122.048;2023-08-01T01:17:35;33.20;43.60
49222;DHT22;35047;37.588;-122.048;2023-08-01T01:20:02;33.00;43.90
49222;DHT22;35047;37.588;-122.048;2023-08-01T01:22:29;33.20;43.90
49222;DHT22;35047;37.588;-122.048;2023-08-01T01:24:56;33.40;43.30
49222;DHT22;35047;37.588;-122.048;2023-08-01T01:27:25;33.30;43.30
49222;DHT22;35047;37.588;-122.048;2023-08-01T01:29:52;33.40;42.80
49222;DHT22;35047;37.588;-122.048;2023-08-01T01:32:19;33.50;42.20
49222;DHT22;35047;37.588;-122.048;2023-08-01T01:34:46;33.40;42.00
49222;DHT22;35047;37.588;-122.048;2023-08-01T01:37:12;33.50;41.90
49222;DHT22;35047;37.588;-122.048;2023-08-01T01:39:39;33.30;40.70
49222;DHT22;35047;37.588;-122.048;2023-08-01T01:42:06;33.30;41.90
49222;DHT22;35047;37.588;-122.048;2023-08-01T01:44:33;33.40;42.30
49222;DHT22;35047;37.588;-122.048;2023-08-01T01:47:00;33.20;42.20
49222;DHT22;35047;37.588;-122.048;2023-08-01T01:49:26;33.30;41.60
49222;DHT22;35047;37.588;-122.048;2023-08-01T01:51:53;33.10;42.10
49222;DHT22;35047;37.588;-122.048;2023-08-01T01:54:20;32.90;42.50
49222;DHT22;35047;37.588;-122.048;2023-08-01T01:56:46;32.50;42.90
49222;DHT22;35047;37.588;-122.048;2023-08-01T01:59:13;32.10;43.00
49222;DHT22;35047;37.588;-122.048;2023-08-01T02:01:39;31.70;43.70
49222;DHT22;35047;37.588;-122.048;2023-08-01T02:04:06;31.40;44.40
49222;DHT22;35047;37.588;-122.048;2023-08-01T02:06:32;31.20;45.20
49222;DHT22;35047;37.588;-122.048;2023-08-01T02:09:00;30.90;45.60
49222;DHT22;35047;37.588;-122.048;2023-08-01T02:11:26;30.80;45.90
49222;DHT22;35047;37.588;-122.048;2023-08-01T02:13:53;30.50;46.60
49222;DHT22;35047;37.588;-122.048;2023-08-01T02:16:19;30.40;46.90
49222;DHT22;35047;37.588;-122.048;2023-08-01T02:18:46;30.30;47.20
49222;DHT22;35047;37.588;-122.048;2023-08-01T02:21:12;30.20;47.50
49222;DHT22;35047;37.588;-122.048;2023-08-01T02:23:39;30.10;47.70
49222;DHT22;35047;37.588;-122.048;2023-08-01T02:26:05;30.00;48.10
49222;DHT22;35047;37.588;-122.048;2023-08-01T02:28:34;29.90;49.00
49222;DHT22;35047;37.588;-122.048;2023-08-01T02:31:00;29.80;48.70
49222;DHT22;35047;37.588;-122.048;2023-08-01T02:33:27;29.60;49.00
49222;DHT22;35047;37.588;-122.048;2023-08-01T02:35:53;29.40;49.60
49222;DHT22;35047;37.588;-122.048;2023-08-01T02:38:20;29.30;50.00
49222;DHT22;35047;37.588;-122.048;2023-08-01T02:40:46;29.20;50.40
49222;DHT22;35047;37.588;-122.048;2023-08-01T02:43:13;29.00;50.40
49222;DHT22;35047;37.588;-122.048;2023-08-01T02:45:42;29.00;50.60
49222;DHT22;35047;37.588;-122.048;2023-08-01T02:48:08;28.90;50.90
49222;DHT22;35047;37.588;-122.048;2023-08-01T02:50:35;28.70;51.00
49222;DHT22;35047;37.588;-122.048;2023-08-01T02:53:02;28.70;51.20
49222;DHT22;35047;37.588;-122.048;2023-08-01T02:55:28;28.50;51.40
49222;DHT22;35047;37.588;-122.048;2023-08-01T02:57:55;28.40;51.60
49222;DHT22;35047;37.588;-122.048;2023-08-01T03:00:21;28.20;51.60
49222;DHT22;35047;37.588;-122.048;2023-08-01T03:02:48;27.90;51.80
49222;DHT22;35047;37.588;-122.048;2023-08-01T03:05:14;27.70;52.50
49222;DHT22;35047;37.588;-122.048;2023-08-01T03:07:41;27.60;52.90
49222;DHT22;35047;37.588;-122.048;2023-08-01T03:10:07;27.30;53.50
49222;DHT22;35047;37.588;-122.048;2023-08-01T03:12:34;27.10;53.80
49222;DHT22;35047;37.588;-122.048;2023-08-01T03:15:01;27.00;54.20
49222;DHT22;35047;37.588;-122.048;2023-08-01T03:17:27;26.90;54.30
49222;DHT22;35047;37.588;-122.048;2023-08-01T03:19:54;26.80;54.70
49222;DHT22;35047;37.588;-122.048;2023-08-01T03:22:20;26.80;55.00
49222;DHT22;35047;37.588;-122.048;2023-08-01T03:24:47;26.90;54.90
49222;DHT22;35047;37.588;-122.048;2023-08-01T03:27:14;26.80;54.70
49222;DHT22;35047;37.588;-122.048;2023-08-01T03:29:41;26.90;54.60
49222;DHT22;35047;37.588;-122.048;2023-08-01T03:32:07;26.90;54.50
49222;DHT22;35047;37.588;-122.048;2023-08-01T03:34:34;26.90;54.40
49222;DHT22;35047;37.588;-122.048;2023-08-01T03:37:00;27.00;54.30
49222;DHT22;35047;37.588;-122.048;2023-08-01T03:39:27;27.00;54.20
49222;DHT22;35047;37.588;-122.048;2023-08-01T03:41:53;26.90;54.10
49222;DHT22;35047;37.588;-122.048;2023-08-01T03:44:20;27.00;53.90
49222;DHT22;35047;37.588;-122.048;2023-08-01T03:46:46;27.00;53.80
49222;DHT22;35047;37.588;-122.048;2023-08-01T03:49:13;27.00;53.80
49222;DHT22;35047;37.588;-122.048;2023-08-01T03:51:40;26.90;53.60
49222;DHT22;35047;37.588;-122.048;2023-08-01T03:54:06;26.90;53.80
49222;DHT22;35047;37.588;-122.048;2023-08-01T03:56:33;27.00;53.90
49222;DHT22;35047;37.588;-122.048;2023-08-01T03:58:59;27.00;53.90
49222;DHT22;35047;37.588;-122.048;2023-08-01T04:01:26;27.00;54.10
49222;DHT22;35047;37.588;-122.048;2023-08-01T04:03:52;27.00;54.20
49222;DHT22;35047;37.588;-122.048;2023-08-01T04:06:19;27.00;54.30
49222;DHT22;35047;37.588;-122.048;2023-08-01T04:08:45;27.00;54.50
49222;DHT22;35047;37.588;-122.048;2023-08-01T04:11:12;27.00;54.70
49222;DHT22;35047;37.588;-122.048;2023-08-01T04:13:38;27.00;55.30
49222;DHT22;35047;37.588;-122.048;2023-08-01T04:16:05;27.00;54.70
49222;DHT22;35047;37.588;-122.048;2023-08-01T04:20:59;26.70;54.60
49222;DHT22;35047;37.588;-122.048;2023-08-01T04:23:25;26.60;55.40
49222;DHT22;35047;37.588;-122.048;2023-08-01T04:25:52;26.70;55.40
49222;DHT22;35047;37.588;-122.048;2023-08-01T04:28:19;26.70;55.40
49222;DHT22;35047;37.588;-122.048;2023-08-01T04:30:50;26.70;55.30
49222;DHT22;35047;37.588;-122.048;2023-08-01T04:33:16;26.70;55.90
49222;DHT22;35047;37.588;-122.048;2023-08-01T04:35:43;26.70;55.10
49222;DHT22;35047;37.588;-122.048;2023-08-01T04:38:10;26.70;55.20
49222;DHT22;35047;37.588;-122.048;2023-08-01T04:40:36;26.70;55.10
49222;DHT22;35047;37.588;-122.048;2023-08-01T04:43:03;26.70;55.10
49222;DHT22;35047;37.588;-122.048;2023-08-01T04:45:30;26.70;55.00
49222;DHT22;35047;37.588;-122.048;2023-08-01T04:47:56;26.70;55.10
49222;DHT22;35047;37.588;-122.048;2023-08-01T04:50:23;26.70;55.00
49222;DHT22;35047;37.588;-122.048;2023-08-01T04:52:49;26.60;55.00
49222;DHT22;35047;37.588;-122.048;2023-08-01T04:55:16;26.60;55.00
49222;DHT22;35047;37.588;-122.048;2023-08-01T04:57:42;26.60;55.00
49222;DHT22;35047;37.588;-122.048;2023-08-01T05:00:10;26.60;55.10
49222;DHT22;35047;37.588;-122.048;2023-08-01T05:02:37;26.60;55.10
49222;DHT22;35047;37.588;-122.048;2023-08-01T05:05:03;26.60;55.10
49222;DHT22;35047;37.588;-122.048;2023-08-01T05:07:30;26.60;55.20
49222;DHT22;35047;37.588;-122.048;2023-08-01T05:09:58;26.50;55.40
49222;DHT22;35047;37.588;-122.048;2023-08-01T05:12:24;26.50;55.20
49222;DHT22;35047;37.588;-122.048;2023-08-01T05:14:51;26.50;55.30
49222;DHT22;35047;37.588;-122.048;2023-08-01T05:17:17;26.50;55.50
49222;DHT22;35047;37.588;-122.048;2023-08-01T05:19:44;26.40;55.70
49222;DHT22;35047;37.588;-122.048;2023-08-01T05:22:10;26.30;55.80
49222;DHT22;35047;37.588;-122.048;2023-08-01T05:24:37;26.30;55.90
49222;DHT22;35047;37.588;-122.048;2023-08-01T05:27:03;26.20;56.10
49222;DHT22;35047;37.588;-122.048;2023-08-01T05:29:30;26.20;56.20
49222;DHT22;35047;37.588;-122.048;2023-08-01T05:31:56;26.20;56.20
49222;DHT22;35047;37.588;-122.048;2023-08-01T05:34:23;26.20;56.20
49222;DHT22;35047;37.588;-122.048;2023-08-01T05:36:49;26.10;56.20
49222;DHT22;35047;37.588;-122.048;2023-08-01T05:39:16;26.10;56.10
49222;DHT22;35047;37.588;-122.048;2023-08-01T05:41:43;26.20;56.20
49222;DHT22;35047;37.588;-122.048;2023-08-01T05:44:09;26.20;56.10
49222;DHT22;35047;37.588;-122.048;2023-08-01T05:46:36;26.20;56.20
49222;DHT22;35047;37.588;-122.048;2023-08-01T05:49:02;26.20;56.10
49222;DHT22;35047;37.588;-122.048;2023-08-01T05:51:29;26.20;56.00
49222;DHT22;35047;37.588;-122.048;2023-08-01T05:53:55;26.20;56.00
49222;DHT22;35047;37.588;-122.048;2023-08-01T05:56:22;26.20;56.00
49222;DHT22;35047;37.588;-122.048;2023-08-01T05:58:48;26.20;56.00
49222;DHT22;35047;37.588;-122.048;2023-08-01T06:01:16;26.20;55.90
49222;DHT22;35047;37.588;-122.048;2023-08-01T06:03:43;26.20;56.00
49222;DHT22;35047;37.588;-122.048;2023-08-01T06:06:10;26.10;55.90
49222;DHT22;35047;37.588;-122.048;2023-08-01T06:08:37;26.10;56.00
49222;DHT22;35047;37.588;-122.048;2023-08-01T06:11:03;26.10;56.10
49222;DHT22;35047;37.588;-122.048;2023-08-01T06:13:30;26.10;56.10
49222;DHT22;35047;37.588;-122.048;2023-08-01T06:15:57;26.10;56.00
49222;DHT22;35047;37.588;-122.048;2023-08-01T06:18:24;26.00;55.90
49222;DHT22;35047;37.588;-122.048;2023-08-01T06:20:51;26.00;56.10
49222;DHT22;35047;37.588;-122.048;2023-08-01T06:23:17;26.00;56.10
49222;DHT22;35047;37.588;-122.048;2023-08-01T06:25:44;26.00;56.20
49222;DHT22;35047;37.588;-122.048;2023-08-01T06:28:11;26.00;56.10
49222;DHT22;35047;37.588;-122.048;2023-08-01T06:30:37;26.00;56.10
49222;DHT22;35047;37.588;-122.048;2023-08-01T06:33:04;26.00;56.20
49222;DHT22;35047;37.588;-122.048;2023-08-01T06:35:30;26.00;56.10
49222;DHT22;35047;37.588;-122.048;2023-08-01T06:37:57;26.00;56.00
49222;DHT22;35047;37.588;-122.048;2023-08-01T06:40:23;26.00;56.00
49222;DHT22;35047;37.588;-122.048;2023-08-01T06:42:51;25.90;55.90
49222;DHT22;35047;37.588;-122.048;2023-08-01T06:45:17;25.80;56.00
49222;DHT22;35047;37.588;-122.048;2023-08-01T06:47:44;25.70;56.90
49222;DHT22;35047;37.588;-122.048;2023-08-01T06:50:10;25.70;56.40
49222;DHT22;35047;37.588;-122.048;2023-08-01T06:52:37;25.60;56.40
49222;DHT22;35047;37.588;-122.048;2023-08-01T06:55:04;25.60;56.60
49222;DHT22;35047;37.588;-122.048;2023-08-01T06:57:30;25.60;56.60
49222;DHT22;35047;37.588;-122.048;2023-08-01T06:59:57;25.60;56.60
49222;DHT22;35047;37.588;-122.048;2023-08-01T07:02:23;25.50;56.60
49222;DHT22;35047;37.588;-122.048;2023-08-01T07:04:52;25.50;56.70
49222;DHT22;35047;37.588;-122.048;2023-08-01T07:07:18;25.50;56.70
49222;DHT22;35047;37.588;-122.048;2023-08-01T07:09:45;25.50;56.70
49222;DHT22;35047;37.588;-122.048;2023-08-01T07:12:11;25.50;56.60
49222;DHT22;35047;37.588;-122.048;2023-08-01T07:14:38;25.60;56.60
49222;DHT22;35047;37.588;-122.048;2023-08-01T07:17:05;25.50;56.50
49222;DHT22;35047;37.588;-122.048;2023-08-01T07:19:31;25.60;56.60
49222;DHT22;35047;37.588;-122.048;2023-08-01T07:21:58;25.60;56.60
49222;DHT22;35047;37.588;-122.048;2023-08-01T07:24:24;25.60;56.50
49222;DHT22;35047;37.588;-122.048;2023-08-01T07:26:50;25.60;57.10
49222;DHT22;35047;37.588;-122.048;2023-08-01T07:29:17;25.60;56.50
49222;DHT22;35047;37.588;-122.048;2023-08-01T07:31:43;25.60;56.50
49222;DHT22;35047;37.588;-122.048;2023-08-01T07:34:10;25.60;56.60
49222;DHT22;35047;37.588;-122.048;2023-08-01T07:36:36;25.60;56.50
49222;DHT22;35047;37.588;-122.048;2023-08-01T07:39:03;25.60;56.50
49222;DHT22;35047;37.588;-122.048;2023-08-01T07:41:30;25.60;56.40
49222;DHT22;35047;37.588;-122.048;2023-08-01T07:43:56;25.60;56.50
49222;DHT22;35047;37.588;-122.048;2023-08-01T07:46:23;25.60;56.40
49222;DHT22;35047;37.588;-122.048;2023-08-01T07:48:49;25.60;56.20
49222;DHT22;35047;37.588;-122.048;2023-08-01T07:51:17;25.60;56.30
49222;DHT22;35047;37.588;-122.048;2023-08-01T07:53:43;25.60;56.40
49222;DHT22;35047;37.588;-122.048;2023-08-01T07:56:10;25.60;56.30
49222;DHT22;35047;37.588;-122.048;2023-08-01T07:58:36;25.50;56.30
49222;DHT22;35047;37.588;-122.048;2023-08-01T08:01:06;25.40;56.50
49222;DHT22;35047;37.588;-122.048;2023-08-01T08:03:32;25.40;57.00
49222;DHT22;35047;37.588;-122.048;2023-08-01T08:05:59;25.30;57.40
49222;DHT22;35047;37.588;-122.048;2023-08-01T08:08:25;25.30;57.70
49222;DHT22;35047;37.588;-122.048;2023-08-01T08:10:52;25.30;57.80
49222;DHT22;35047;37.588;-122.048;2023-08-01T08:13:19;25.30;57.70
49222;DHT22;35047;37.588;-122.048;2023-08-01T08:15:46;25.30;57.70
49222;DHT22;35047;37.588;-122.048;2023-08-01T08:18:12;25.30;57.70
49222;DHT22;35047;37.588;-122.048;2023-08-01T08:20:44;25.30;57.50
49222;DHT22;35047;37.588;-122.048;2023-08-01T08:23:11;25.30;57.50
49222;DHT22;35047;37.588;-122.048;2023-08-01T08:25:41;25.30;57.50
49222;DHT22;35047;37.588;-122.048;2023-08-01T08:28:12;25.30;57.50
49222;DHT22;35047;37.588;-122.048;2023-08-01T08:30:39;25.30;57.50
49222;DHT22;35047;37.588;-122.048;2023-08-01T08:33:05;25.30;57.50
49222;DHT22;35047;37.588;-122.048;2023-08-01T08:35:35;25.30;57.40
49222;DHT22;35047;37.588;-122.048;2023-08-01T08:38:03;25.30;57.60
49222;DHT22;35047;37.588;-122.048;2023-08-01T08:40:33;25.30;57.60
49222;DHT22;35047;37.588;-122.048;2023-08-01T08:43:02;25.20;57.70
49222;DHT22;35047;37.588;-122.048;2023-08-01T08:45:34;25.20;57.90
49222;DHT22;35047;37.588;-122.048;2023-08-01T08:48:05;25.10;58.10
49222;DHT22;35047;37.588;-122.048;2023-08-01T08:50:33;25.10;58.10
49222;DHT22;35047;37.588;-122.048;2023-08-01T08:53:02;25.10;58.20
49222;DHT22;35047;37.588;-122.048;2023-08-01T08:55:29;25.10;58.40
49222;DHT22;35047;37.588;-122.048;2023-08-01T08:57:57;25.00;58.50
49222;DHT22;35047;37.588;-122.048;2023-08-01T09:00:26;25.00;58.60
49222;DHT22;35047;37.588;-122.048;2023-08-01T09:02:53;25.00;58.70
49222;DHT22;35047;37.588;-122.048;2023-08-01T09:05:23;25.00;58.70
49222;DHT22;35047;37.588;-122.048;2023-08-01T09:07:56;25.00;58.80
49222;DHT22;35047;37.588;-122.048;2023-08-01T09:10:23;24.90;58.80
49222;DHT22;35047;37.588;-122.048;2023-08-01T09:12:50;24.90;58.90
49222;DHT22;35047;37.588;-122.048;2023-08-01T09:15:17;24.90;59.00
49222;DHT22;35047;37.588;-122.048;2023-08-01T09:17:49;24.90;59.10
49222;DHT22;35047;37.588;-122.048;2023-08-01T09:20:16;24.90;59.20
49222;DHT22;35047;37.588;-122.048;2023-08-01T09:22:46;24.90;59.10
49222;DHT22;35047;37.588;-122.048;2023-08-01T09:25:13;24.90;59.00
49222;DHT22;35047;37.588;-122.048;2023-08-01T09:27:40;24.90;59.00
49222;DHT22;35047;37.588;-122.048;2023-08-01T09:30:13;24.90;59.00
49222;DHT22;35047;37.588;-122.048;2023-08-01T09:32:55;24.90;58.90
49222;DHT22;35047;37.588;-122.048;2023-08-01T09:35:23;24.90;58.90
49222;DHT22;35047;37.588;-122.048;2023-08-01T09:37:49;24.90;58.80
49222;DHT22;35047;37.588;-122.048;2023-08-01T09:40:16;24.90;58.80
49222;DHT22;35047;37.588;-122.048;2023-08-01T09:42:44;24.90;58.70
49222;DHT22;35047;37.588;-122.048;2023-08-01T09:45:18;24.90;58.70
49222;DHT22;35047;37.588;-122.048;2023-08-01T09:47:46;24.90;58.70
49222;DHT22;35047;37.588;-122.048;2023-08-01T09:50:20;25.00;58.60
49222;DHT22;35047;37.588;-122.048;2023-08-01T09:52:47;24.90;58.40
49222;DHT22;35047;37.588;-122.048;2023-08-01T09:55:31;25.00;58.50
49222;DHT22;35047;37.588;-122.048;2023-08-01T09:57:59;25.00;58.50
49222;DHT22;35047;37.588;-122.048;2023-08-01T10:00:27;24.90;58.50
49222;DHT22;35047;37.588;-122.048;2023-08-01T10:02:58;24.90;58.70
49222;DHT22;35047;37.588;-122.048;2023-08-01T10:05:31;24.80;58.80
49222;DHT22;35047;37.588;-122.048;2023-08-01T10:07:59;24.80;58.90
49222;DHT22;35047;37.588;-122.048;2023-08-01T10:10:27;24.80;59.00
49222;DHT22;35047;37.588;-122.048;2023-08-01T10:12:57;24.80;59.00
49222;DHT22;35047;37.588;-122.048;2023-08-01T10:15:25;24.80;59.00
49222;DHT22;35047;37.588;-122.048;2023-08-01T10:17:54;24.70;59.10
49222;DHT22;35047;37.588;-122.048;2023-08-01T10:20:21;24.70;59.20
49222;DHT22;35047;37.588;-122.048;2023-08-01T10:22:51;24.70;59.30
49222;DHT22;35047;37.588;-122.048;2023-08-01T10:25:20;24.70;59.40
49222;DHT22;35047;37.588;-122.048;2023-08-01T10:28:07;24.70;59.40
49222;DHT22;35047;37.588;-122.048;2023-08-01T10:30:34;24.70;59.40
49222;DHT22;35047;37.588;-122.048;2023-08-01T10:33:01;24.70;59.40
49222;DHT22;35047;37.588;-122.048;2023-08-01T10:38:12;24.70;59.60
49222;DHT22;35047;37.588;-122.048;2023-08-01T10:40:41;24.70;59.60
49222;DHT22;35047;37.588;-122.048;2023-08-01T10:43:24;24.70;59.50
49222;DHT22;35047;37.588;-122.048;2023-08-01T10:46:04;24.70;59.60
49222;DHT22;35047;37.588;-122.048;2023-08-01T10:48:30;24.70;59.50
49222;DHT22;35047;37.588;-122.048;2023-08-01T10:50:57;24.70;59.40
49222;DHT22;35047;37.588;-122.048;2023-08-01T10:53:24;24.70;59.40
49222;DHT22;35047;37.588;-122.048;2023-08-01T10:55:51;24.80;59.50
49222;DHT22;35047;37.588;-122.048;2023-08-01T10:58:18;24.80;59.50
49222;DHT22;35047;37.588;-122.048;2023-08-01T11:00:45;24.80;59.40
49222;DHT22;35047;37.588;-122.048;2023-08-01T11:03:11;24.70;59.40
49222;DHT22;35047;37.588;-122.048;2023-08-01T11:05:38;24.80;59.40
49222;DHT22;35047;37.588;-122.048;2023-08-01T11:08:04;24.80;59.50
49222;DHT22;35047;37.588;-122.048;2023-08-01T11:10:33;24.80;59.50
49222;DHT22;35047;37.588;-122.048;2023-08-01T11:13:00;24.80;59.60
49222;DHT22;35047;37.588;-122.048;2023-08-01T11:15:26;24.80;59.50
49222;DHT22;35047;37.588;-122.048;2023-08-01T11:17:54;24.80;59.40
49222;DHT22;35047;37.588;-122.048;2023-08-01T11:20:22;24.80;59.40
49222;DHT22;35047;37.588;-122.048;2023-08-01T11:23:00;24.80;59.40
49222;DHT22;35047;37.588;-122.048;2023-08-01T11:25:39;24.80;59.40
49222;DHT22;35047;37.588;-122.048;2023-08-01T11:28:11;24.80;59.40
49222;DHT22;35047;37.588;-122.048;2023-08-01T11:30:38;24.80;59.40
49222;DHT22;35047;37.588;-122.048;2023-08-01T11:33:22;24.70;59.50
49222;DHT22;35047;37.588;-122.048;2023-08-01T11:35:56;24.70;59.80
49222;DHT22;35047;37.588;-122.048;2023-08-01T11:38:25;24.60;59.80
49222;DHT22;35047;37.588;-122.048;2023-08-01T11:40:54;24.60;60.00
49222;DHT22;35047;37.588;-122.048;2023-08-01T11:43:21;24.50;60.00
49222;DHT22;35047;37.588;-122.048;2023-08-01T11:45:52;24.50;60.10
49222;DHT22;35047;37.588;-122.048;2023-08-01T11:48:22;24.50;60.20
49222;DHT22;35047;37.588;-122.048;2023-08-01T11:51:00;24.50;60.20
49222;DHT22;35047;37.588;-122.048;2023-08-01T11:53:28;24.50;60.20
49222;DHT22;35047;37.588;-122.048;2023-08-01T11:55:55;24.50;60.00
49222;DHT22;35047;37.588;-122.048;2023-08-01T11:58:41;24.50;59.80
49222;DHT22;35047;37.588;-122.048;2023-08-01T12:01:11;24.50;60.00
49222;DHT22;35047;37.588;-122.048;2023-08-01T12:03:51;24.50;59.90
49222;DHT22;35047;37.588;-122.048;2023-08-01T12:06:20;24.50;60.00
49222;DHT22;35047;37.588;-122.048;2023-08-01T12:08:50;24.50;60.10
49222;DHT22;35047;37.588;-122.048;2023-08-01T12:16:40;24.40;60.50
49222;DHT22;35047;37.588;-122.048;2023-08-01T12:19:09;24.50;60.30
49222;DHT22;35047;37.588;-122.048;2023-08-01T12:21:36;24.50;60.40
49222;DHT22;35047;37.588;-122.048;2023-08-01T12:24:03;24.50;60.40
49222;DHT22;35047;37.588;-122.048;2023-08-01T12:26:30;24.50;60.40
49222;DHT22;35047;37.588;-122.048;2023-08-01T12:28:56;24.50;60.50
49222;DHT22;35047;37.588;-122.048;2023-08-01T12:31:23;24.50;60.30
49222;DHT22;35047;37.588;-122.048;2023-08-01T12:33:49;24.60;60.50
49222;DHT22;35047;37.588;-122.048;2023-08-01T12:36:16;24.60;60.40
49222;DHT22;35047;37.588;-122.048;2023-08-01T12:38:43;24.60;60.30
49222;DHT22;35047;37.588;-122.048;2023-08-01T12:41:09;24.60;60.20
49222;DHT22;35047;37.588;-122.048;2023-08-01T12:43:36;24.70;60.20
49222;DHT22;35047;37.588;-122.048;2023-08-01T12:46:04;24.70;60.20
49222;DHT22;35047;37.588;-122.048;2023-08-01T12:48:30;24.70;60.20
49222;DHT22;35047;37.588;-122.048;2023-08-01T12:50:57;24.70;60.20
49222;DHT22;35047;37.588;-122.048;2023-08-01T12:53:24;24.70;60.30
49222;DHT22;35047;37.588;-122.048;2023-08-01T12:55:51;24.60;60.40
49222;DHT22;35047;37.588;-122.048;2023-08-01T12:58:17;24.60;60.60
49222;DHT22;35047;37.588;-122.048;2023-08-01T13:00:45;24.60;60.80
49222;DHT22;35047;37.588;-122.048;2023-08-01T13:03:12;24.60;60.90
49222;DHT22;35047;37.588;-122.048;2023-08-01T13:05:40;24.50;61.00
49222;DHT22;35047;37.588;-122.048;2023-08-01T13:08:07;24.50;61.10
49222;DHT22;35047;37.588;-122.048;2023-08-01T13:10:35;24.50;61.30
49222;DHT22;35047;37.588;-122.048;2023-08-01T13:13:02;24.50;61.20
49222;DHT22;35047;37.588;-122.048;2023-08-01T13:15:29;24.60;61.20
49222;DHT22;35047;37.588;-122.048;2023-08-01T13:17:55;24.60;61.10
49222;DHT22;35047;37.588;-122.048;2023-08-01T13:20:22;24.50;61.10
49222;DHT22;35047;37.588;-122.048;2023-08-01T13:22:50;24.50;61.10
49222;DHT22;35047;37.588;-122.048;2023-08-01T13:25:18;24.50;61.10
49222;DHT22;35047;37.588;-122.048;2023-08-01T13:27:45;24.50;61.30
49222;DHT22;35047;37.588;-122.048;2023-08-01T13:30:11;24.50;61.30
49222;DHT22;35047;37.588;-122.048;2023-08-01T13:32:44;24.60;61.40
49222;DHT22;35047;37.588;-122.048;2023-08-01T13:35:14;24.60;61.40
49222;DHT22;35047;37.588;-122.048;2023-08-01T13:37:41;24.70;61.30
49222;DHT22;35047;37.588;-122.048;2023-08-01T13:40:08;24.70;61.40
49222;DHT22;35047;37.588;-122.048;2023-08-01T13:42:36;24.70;61.20
49222;DHT22;35047;37.588;-122.048;2023-08-01T13:45:03;24.70;61.10
49222;DHT22;35047;37.588;-122.048;2023-08-01T13:47:30;24.70;61.00
49222;DHT22;35047;37.588;-122.048;2023-08-01T13:49:56;24.80;61.00
49222;DHT22;35047;37.588;-122.048;2023-08-01T13:52:23;24.80;61.00
49222;DHT22;35047;37.588;-122.048;2023-08-01T13:54:50;24.80;61.00
49222;DHT22;35047;37.588;-122.048;2023-08-01T13:57:17;24.90;60.80
49222;DHT22;35047;37.588;-122.048;2023-08-01T13:59:43;24.90;60.80
49222;DHT22;35047;37.588;-122.048;2023-08-01T14:02:10;24.90;60.80
49222;DHT22;35047;37.588;-122.048;2023-08-01T14:04:37;24.90;60.80
49222;DHT22;35047;37.588;-122.048;2023-08-01T14:07:03;24.90;60.80
49222;DHT22;35047;37.588;-122.048;2023-08-01T14:09:30;24.80;61.10
49222;DHT22;35047;37.588;-122.048;2023-08-01T14:11:58;24.70;61.30
49222;DHT22;35047;37.588;-122.048;2023-08-01T14:14:25;24.60;61.50
49222;DHT22;35047;37.588;-122.048;2023-08-01T14:16:51;24.50;61.80
49222;DHT22;35047;37.588;-122.048;2023-08-01T14:19:18;24.40;62.20
49222;DHT22;35047;37.588;-122.048;2023-08-01T14:21:44;24.30;62.50
49222;DHT22;35047;37.588;-122.048;2023-08-01T14:24:11;24.20;63.10
49222;DHT22;35047;37.588;-122.048;2023-08-01T14:26:38;24.10;63.60
49222;DHT22;35047;37.588;-122.048;2023-08-01T14:29:05;24.00;63.80
49222;DHT22;35047;37.588;-122.048;2023-08-01T14:31:31;24.00;64.10
49222;DHT22;35047;37.588;-122.048;2023-08-01T14:33:58;23.90;64.50
49222;DHT22;35047;37.588;-122.048;2023-08-01T14:36:24;23.80;64.70
49222;DHT22;35047;37.588;-122.048;2023-08-01T14:38:51;23.80;65.10
49222;DHT22;35047;37.588;-122.048;2023-08-01T14:41:20;23.70;65.50
49222;DHT22;35047;37.588;-122.048;2023-08-01T14:43:47;23.70;65.50
49222;DHT22;35047;37.588;-122.048;2023-08-01T14:46:13;23.70;65.80
49222;DHT22;35047;37.588;-122.048;2023-08-01T14:48:40;23.60;66.00
49222;DHT22;35047;37.588;-122.048;2023-08-01T14:51:07;23.60;66.40
49222;DHT22;35047;37.588;-122.048;2023-08-01T14:53:33;23.60;66.40
49222;DHT22;35047;37.588;-122.048;2023-08-01T14:56:00;23.60;66.50
49222;DHT22;35047;37.588;-122.048;2023-08-01T14:58:28;23.60;66.70
49222;DHT22;35047;37.588;-122.048;2023-08-01T15:00:55;23.60;66.90
49222;DHT22;35047;37.588;-122.048;2023-08-01T15:03:22;23.60;66.80